Latest Weather Observations for McCluer Island

IDD60801

Issued at 3:01 pm CST Saturday 2 July 2016 (issued every 30 minutes, with the page automatically refreshed every 10 minutes)

About weather observations | Map of weather stations | Latest weather observations for NT | Other Formats
Station Details ID: 014274 Name: MCCLUER ISLAND Lat: -11.05 Lon: 132.98 Height: 1.4 m
Data from the previous 72 hours. | See also: Recent months at McCluer Island
Date/Time
CST
Temp
°C
App
Temp
°C
Dew
Point
°C
Rel
Hum
%
Delta-T
°C
Wind Press
QNH
hPa
Press
MSL
hPa
Rain since
9am
mm
Dir  Spd
km/h
Gust
km/h
Spd
kts
Gust
kts
02/03:00pm 27.7 24.3 19.8 62 5.1 ESE 37 43 20 23 1012.6 1012.6 0.0
02/02:30pm 27.5 23.3 19.0 59 5.5 ESE 39 44 21 24 1013.0 - 0.0
02/02:00pm 28.0 23.7 18.7 57 6.0 ESE 39 44 21 24 1013.5 - 0.0
02/01:30pm 28.1 23.7 19.3 58 5.7 ESE 41 48 22 26 1013.9 - 0.0
02/01:00pm 27.0 22.7 18.6 60 5.4 ESE 39 44 21 24 1014.4 - 0.0
02/12:30pm 28.3 24.3 18.4 55 6.3 ESE 37 48 20 26 1014.8 - 0.0
02/12:00pm 28.0 23.5 19.0 58 5.8 ESE 41 50 22 27 1015.3 1015.3 0.0
02/11:30am 28.0 24.6 18.1 55 6.3 SE 33 46 18 25 1015.6 - 0.0
02/11:22am 27.9 23.9 18.6 57 6.0 SE 37 56 20 30 1015.7 - 0.0
02/11:00am 28.0 24.7 18.4 56 6.1 SE 33 44 18 24 1015.9 - 0.0
02/10:30am 27.2 23.4 18.2 58 5.7 SE 35 44 19 24 1016.0 - 0.0
02/10:00am 26.8 23.5 18.4 60 5.3 SE 33 52 18 28 1016.0 - 0.0
02/09:56am 27.2 23.8 18.2 58 5.7 SE 33 52 18 28 1016.0 - 0.0
02/09:30am 26.5 23.3 18.6 62 5.0 SE 33 43 18 23 1016.0 - 0.0
02/09:00am 26.2 23.9 19.3 65 4.4 SE 30 41 16 22 1016.1 1016.1 0.0
02/08:30am 26.0 23.6 19.2 66 4.4 SE 30 39 16 21 1015.8 - 0.0
02/08:00am 25.6 23.8 18.8 66 4.3 SE 26 37 14 20 1015.5 - 0.0
02/07:30am 25.0 22.7 18.4 66 4.2 ESE 28 37 15 20 1015.3 - 0.0
02/07:00am 25.1 22.3 18.3 66 4.3 SE 30 39 16 21 1014.9 - 0.0
02/06:30am 25.3 20.6 17.7 62 4.8 ESE 39 48 21 26 1014.6 - 0.0
02/06:00am 25.2 21.9 17.9 64 4.6 SE 32 46 17 25 1014.5 1014.5 0.0
02/05:30am 25.0 21.9 18.4 66 4.2 SE 32 44 17 24 1014.5 - 0.0
02/05:12am 24.8 22.6 18.7 69 3.9 SE 28 46 15 25 1014.6 - 0.0
02/05:00am 24.9 21.9 18.6 68 4.0 SE 32 46 17 25 1014.6 - 0.0
02/04:30am 24.9 22.0 18.8 69 3.9 SE 32 43 17 23 1014.6 - 0.0
02/04:00am 25.1 23.4 19.0 69 3.9 SE 26 39 14 21 1014.7 - 0.0
02/03:30am 25.3 23.2 19.0 68 4.0 SE 28 43 15 23 1014.7 - 0.0
02/03:00am 25.8 22.8 19.0 66 4.3 SE 33 50 18 27 1014.6 1014.6 0.0
02/02:30am 26.3 22.3 19.4 66 4.4 ESE 39 50 21 27 1014.8 - 0.0
02/02:00am 26.4 22.5 18.8 63 4.9 ESE 37 46 20 25 1015.0 - 0.0
02/01:30am 26.6 21.1 18.2 60 5.3 ESE 44 56 24 30 1014.9 - 0.0
02/01:00am 26.8 20.5 18.9 62 5.1 ESE 50 57 27 31 1014.7 - 0.0
02/12:30am 26.7 21.7 20.1 67 4.3 ESE 46 59 25 32 1014.8 - 0.0
02/12:00am 27.2 21.7 19.8 64 4.8 ESE 48 57 26 31 1014.7 1014.7 0.0
 
Date/Time
CST
Temp
°C
App
Temp
°C
Dew
Point
°C
Rel
Hum
%
Delta-T
°C
Wind Press
QNH
hPa
Press
MSL
hPa
Rain since
9am
mm
Dir  Spd
km/h
Gust
km/h
Spd
kts
Gust
kts
01/11:30pm 27.3 22.3 20.9 68 4.2 E 48 57 26 31 1014.7 - 0.0
01/11:00pm 27.3 23.2 21.8 72 3.7 E 46 57 25 31 1014.7 - 0.0
01/10:30pm 27.5 24.5 22.2 73 3.6 E 41 50 22 27 1014.7 - 0.0
01/10:00pm 27.3 23.8 21.1 69 4.1 E 41 48 22 26 1014.4 - 0.0
01/09:30pm 27.4 24.4 20.7 67 4.4 E 37 44 20 24 1014.1 - 0.0
01/09:00pm 27.3 24.5 21.1 69 4.1 E 37 44 20 24 1013.8 1013.8 0.0
01/08:30pm 27.6 24.9 21.2 68 4.3 E 37 43 20 23 1013.5 - 0.0
01/08:00pm 27.6 25.3 21.2 68 4.3 E 35 41 19 22 1013.2 - 0.0
01/07:30pm 27.4 24.8 21.4 70 4.0 E 37 43 20 23 1012.9 - 0.0
01/07:00pm 27.4 24.0 21.4 70 4.0 E 41 46 22 25 1012.7 - 0.0
01/06:30pm 27.2 24.6 21.5 71 3.8 E 37 44 20 24 1012.4 - 0.0
01/06:00pm 27.3 24.8 21.6 71 3.8 E 37 44 20 24 1012.3 1012.3 0.0
01/05:30pm 27.2 23.1 20.8 68 4.2 E 43 50 23 27 1012.2 - 0.0
01/05:00pm 27.4 24.3 21.9 72 3.7 E 41 48 22 26 1012.2 - 0.0
01/04:30pm 27.1 24.0 21.2 70 3.9 ESE 39 46 21 25 1012.2 - 0.0
01/04:00pm 27.4 24.9 21.7 71 3.8 ESE 37 43 20 23 1012.2 - 0.0
01/03:30pm 27.4 25.4 21.2 69 4.1 ESE 33 41 18 22 1012.4 - 0.0
01/03:00pm 27.2 24.9 20.5 67 4.4 ESE 33 43 18 23 1012.5 1012.5 0.0
01/02:30pm 27.2 24.8 20.3 66 4.5 ESE 33 41 18 22 1012.8 - 0.0
01/02:00pm 26.9 24.1 19.5 64 4.8 ESE 33 43 18 23 1013.2 - 0.0
01/01:30pm 27.9 24.2 18.3 56 6.1 ESE 35 46 19 25 1013.5 - 0.0
01/01:00pm 28.3 24.1 18.1 54 6.5 ESE 37 46 20 25 1013.9 - 0.0
01/12:30pm 27.0 23.0 19.4 63 4.9 ESE 39 46 21 25 1014.1 - 0.0
01/12:00pm 27.3 21.9 18.0 56 5.9 ESE 43 52 23 28 1014.4 1014.4 0.0
01/11:30am 27.0 21.9 17.8 57 5.8 ESE 41 50 22 27 1014.7 - 0.0
01/11:00am 27.0 22.4 18.8 60 5.3 ESE 41 48 22 26 1014.8 - 0.0
01/10:30am 27.6 23.7 20.4 65 4.7 ESE 41 50 22 27 1015.0 - 0.0
01/10:00am 27.0 23.8 20.3 66 4.4 ESE 37 44 20 24 1015.3 - 0.0
01/09:30am 26.8 22.2 19.7 65 4.6 ESE 43 50 23 27 1015.5 - 0.0
01/09:00am 26.8 23.4 19.9 66 4.5 ESE 37 48 20 26 1015.4 1015.4 0.0
01/08:30am 26.7 23.9 21.0 71 3.8 ESE 37 44 20 24 1015.2 - 0.0
01/08:00am 26.1 24.4 21.3 75 3.2 ESE 32 41 17 22 1014.9 - 0.0
01/07:30am 25.8 24.2 21.5 77 2.9 ESE 32 41 17 22 1014.7 - 0.0
01/07:00am 25.5 24.5 21.2 77 2.8 SE 28 39 15 21 1014.5 - 0.0
01/06:30am 25.5 24.4 21.0 76 3.0 SE 28 43 15 23 1014.3 - 0.0
01/06:00am 25.7 23.2 20.9 75 3.2 ESE 35 44 19 24 1013.8 1013.8 0.0
01/05:30am 25.7 23.7 21.1 76 3.0 ESE 33 44 18 24 1013.4 - 0.0
01/05:00am 25.8 23.8 21.2 76 3.0 ESE 33 44 18 24 1013.3 - 0.0
01/04:30am 26.1 24.2 22.0 78 2.7 ESE 35 44 19 24 1013.0 - 0.0
01/04:00am 25.7 23.5 21.4 77 2.8 ESE 35 46 19 25 1012.8 - 0.0
01/03:30am 26.0 23.5 21.7 77 2.9 ESE 37 46 20 25 1012.9 - 0.0
01/03:00am 25.9 23.4 21.6 77 2.9 ESE 37 46 20 25 1013.0 1013.0 0.0
01/02:30am 26.2 23.6 22.1 78 2.7 ESE 39 48 21 26 1013.2 - 0.0
01/02:00am 26.5 23.6 22.3 78 2.8 ESE 41 48 22 26 1013.4 - 0.0
01/01:30am 26.7 23.4 22.3 77 3.0 ESE 43 50 23 27 1013.5 - 0.0
01/01:00am 26.8 24.1 22.6 78 2.8 ESE 41 46 22 25 1013.7 - 0.0
01/12:30am 27.5 25.2 23.3 78 2.9 ESE 41 50 22 27 1013.8 - 0.0
01/12:00am 27.3 25.2 23.1 78 2.9 E 39 46 21 25 1013.7 1013.7 0.0
 
Date/Time
CST
Temp
°C
App
Temp
°C
Dew
Point
°C
Rel
Hum
%
Delta-T
°C
Wind Press
QNH
hPa
Press
MSL
hPa
Rain since
9am
mm
Dir  Spd
km/h
Gust
km/h
Spd
kts
Gust
kts
30/11:30pm 27.9 26.4 24.1 80 2.6 E 39 46 21 25 1013.8 - 0.0
30/11:00pm 27.8 25.4 23.2 76 3.1 E 41 46 22 25 1013.8 - 0.0
30/10:30pm 27.6 26.1 23.4 78 2.9 E 37 44 20 24 1013.9 - 0.0
30/10:00pm 28.0 26.8 24.0 79 2.8 E 37 44 20 24 1013.9 - 0.0
30/09:30pm 27.6 26.1 23.4 78 2.9 E 37 44 20 24 1013.9 - 0.0
30/09:00pm 27.8 25.9 23.4 77 3.0 E 39 44 21 24 1013.7 1013.7 0.0
30/08:30pm 27.8 26.3 23.4 77 3.0 E 37 43 20 23 1013.5 - 0.0
30/08:00pm 27.7 26.6 23.5 78 2.9 E 35 41 19 22 1013.1 - 0.0
30/07:30pm 28.0 27.0 23.6 77 3.0 E 35 43 19 23 1012.7 - 0.0
30/07:00pm 27.8 26.3 22.7 74 3.5 E 35 41 19 22 1012.4 - 0.0
30/06:30pm 27.8 26.8 23.0 75 3.3 E 33 39 18 21 1012.0 - 0.0
30/06:00pm 27.9 27.1 23.3 76 3.1 E 33 39 18 21 1011.9 1011.9 0.0
30/05:30pm 27.9 26.3 22.6 73 3.6 E 35 41 19 22 1011.6 - 0.0
30/05:00pm 28.1 26.6 22.8 73 3.6 E 35 43 19 23 1011.7 - 0.0
30/04:30pm 28.2 26.7 22.7 72 3.7 ESE 35 43 19 23 1011.7 - 0.0
30/04:00pm 28.6 27.1 22.8 71 3.9 ESE 35 41 19 22 1011.7 - 0.0
30/03:30pm 28.2 26.4 22.9 73 3.6 ESE 37 43 20 23 1011.8 - 0.0
30/03:00pm 28.2 25.6 22.9 73 3.6 ESE 41 46 22 25 1012.0 1012.0 0.0
30/02:30pm 28.6 26.0 22.8 71 3.9 ESE 41 46 22 25 1012.3 - 0.0
30/02:00pm 28.4 26.2 22.9 72 3.7 ESE 39 46 21 25 1012.7 - 0.0
30/01:30pm 28.2 25.9 22.7 72 3.7 ESE 39 46 21 25 1013.2 - 0.0
30/01:00pm 27.9 24.9 22.8 74 3.5 ESE 43 50 23 27 1013.6 - 0.0
30/12:30pm 28.2 25.9 22.7 72 3.7 ESE 39 48 21 26 1014.0 - 0.0
30/12:00pm 27.3 24.6 22.0 73 3.6 ESE 39 44 21 24 1014.4 1014.4 0.0
30/11:30am 27.7 25.9 22.2 72 3.7 ESE 35 43 19 23 1014.8 - 0.0
30/11:00am 27.6 26.4 22.3 73 3.6 ESE 32 39 17 21 1015.1 - 0.0
30/10:30am 27.4 26.0 21.9 72 3.7 ESE 32 41 17 22 1015.4 - 0.0
30/10:00am 27.2 25.8 22.2 74 3.4 ESE 33 41 18 22 1015.8 - 0.0
30/09:30am 27.3 25.5 21.6 71 3.8 SE 33 41 18 22 1015.8 - 0.0
30/09:00am 27.1 25.5 21.6 72 3.7 ESE 32 39 17 21 1015.9 1015.9 0.0
30/08:30am 26.6 25.5 21.1 72 3.6 SE 28 35 15 19 1015.7 - 0.0
30/08:00am 26.2 25.7 21.4 75 3.2 SE 26 35 14 19 1015.3 - 0.0
30/07:30am 25.5 24.9 21.2 77 2.8 SE 26 39 14 21 1014.9 - 0.0
30/07:00am 25.5 24.5 21.2 77 2.8 SE 28 39 15 21 1014.8 - 0.0
30/06:30am 25.4 24.2 20.9 76 3.0 SE 28 41 15 22 1014.2 - 0.0
30/06:00am 25.7 24.2 20.9 75 3.2 SE 30 39 16 21 1014.1 1014.1 0.0
30/05:30am 25.7 24.5 20.9 75 3.2 SE 28 35 15 19 1014.0 - 0.0
30/05:00am 25.4 25.4 20.9 76 3.0 SE 22 32 12 17 1014.0 - 0.0
30/04:30am 25.8 25.1 21.0 75 3.2 SE 26 35 14 19 1013.9 - 0.0
30/04:00am 25.9 24.7 20.9 74 3.3 SE 28 35 15 19 1013.8 - 0.0
30/03:30am 26.2 25.3 21.4 75 3.2 SE 28 35 15 19 1013.9 - 0.0
30/03:00am 26.2 25.7 21.4 75 3.2 SE 26 35 14 19 1013.9 1013.9 0.0
30/02:30am 26.3 24.7 21.5 75 3.2 ESE 32 39 17 21 1014.2 - 0.0
30/02:00am 26.6 26.2 21.6 74 3.3 SE 26 35 14 19 1014.3 - 0.0
30/01:30am 26.8 25.6 21.5 72 3.5 SE 30 43 16 23 1014.4 - 0.0
30/01:00am 27.0 26.0 21.3 71 3.8 ESE 28 41 15 22 1014.5 - 0.0
30/12:30am 27.1 25.6 21.8 73 3.5 ESE 32 39 17 21 1014.5 - 0.0
30/12:00am 27.3 26.5 22.3 74 3.4 ESE 30 37 16 20 1014.6 1014.6 0.0
 
Date/Time
CST
Temp
°C
App
Temp
°C
Dew
Point
°C
Rel
Hum
%
Delta-T
°C
Wind Press
QNH
hPa
Press
MSL
hPa
Rain since
9am
mm
Dir  Spd
km/h
Gust
km/h
Spd
kts
Gust
kts
29/11:30pm 27.5 25.6 22.0 72 3.7 ESE 35 41 19 22 1014.6 - 0.0
29/11:00pm 27.7 25.1 22.2 72 3.7 ESE 39 43 21 23 1014.6 - 0.0
29/10:30pm 27.6 25.5 22.3 73 3.6 E 37 43 20 23 1014.7 - 0.0
29/10:00pm 27.7 25.0 22.0 71 3.8 E 39 44 21 24 1014.7 - 0.0
29/09:30pm 27.7 25.6 22.4 73 3.6 E 37 43 20 23 1014.6 - 0.0
29/09:00pm 27.7 24.7 22.2 72 3.7 E 41 46 22 25 1014.5 1014.5 0.0
29/08:30pm 27.8 24.9 22.3 72 3.7 E 41 48 22 26 1014.1 - 0.0
29/08:00pm 27.7 23.8 21.5 69 4.1 E 44 54 24 29 1013.7 - 0.0
29/07:30pm 27.7 25.0 22.0 71 3.8 E 39 48 21 26 1013.4 - 0.0
29/07:00pm 27.7 25.7 22.6 74 3.5 ESE 37 44 20 24 1013.1 - 0.0
29/06:30pm 27.6 26.1 22.8 75 3.3 E 35 41 19 22 1012.8 - 0.0
29/06:00pm 27.6 26.2 22.3 73 3.6 E 33 41 18 22 1012.6 1012.6 0.0
29/05:30pm 27.7 25.6 21.7 70 4.0 E 35 41 19 22 1012.4 - 0.0
29/05:00pm 27.7 25.2 21.7 70 4.0 E 37 43 20 23 1012.2 - 0.0
29/04:30pm 27.7 25.1 21.5 69 4.1 E 37 44 20 24 1012.1 - 0.0
29/04:00pm 27.9 25.2 21.9 70 4.0 ESE 39 46 21 25 1012.0 - 0.0
29/03:30pm 27.6 25.1 21.6 70 4.0 ESE 37 43 20 23 1012.2 - 0.0

Other Formats:

Comma delimited format used in spreadsheet applications
http://www.bom.gov.au/fwo/IDD60801/IDD60801.94135.axf

JavaScript Object Notation format (JSON) in row-major order
http://www.bom.gov.au/fwo/IDD60801/IDD60801.94135.json